sensor_id;sensor_type;location;lat;lon;timestamp;temperature;humidity
64638;HTU21D;51049;45.046;38.950;2023-02-18T00:01:49;5.17;77.53
64638;HTU21D;51049;45.046;38.950;2023-02-18T00:04:16;5.17;77.57
64638;HTU21D;51049;45.046;38.950;2023-02-18T00:06:52;5.15;77.59
64638;HTU21D;51049;45.046;38.950;2023-02-18T00:09:24;5.13;77.58
64638;HTU21D;51049;45.046;38.950;2023-02-18T00:11:54;5.13;77.61
64638;HTU21D;51049;45.046;38.950;2023-02-18T00:14:25;5.15;77.64
64638;HTU21D;51049;45.046;38.950;2023-02-18T00:16:55;5.13;77.60
64638;HTU21D;51049;45.046;38.950;2023-02-18T00:19:35;5.15;77.64
64638;HTU21D;51049;45.046;38.950;2023-02-18T00:22:11;5.16;77.66
64638;HTU21D;51049;45.046;38.950;2023-02-18T00:24:46;5.16;77.65
64638;HTU21D;51049;45.046;38.950;2023-02-18T00:27:17;5.17;77.72
64638;HTU21D;51049;45.046;38.950;2023-02-18T00:32:54;5.19;77.67
64638;HTU21D;51049;45.046;38.950;2023-02-18T00:35:38;5.20;77.72
64638;HTU21D;51049;45.046;38.950;2023-02-18T00:38:15;5.23;77.88
64638;HTU21D;51049;45.046;38.950;2023-02-18T00:40:51;5.23;77.74
64638;HTU21D;51049;45.046;38.950;2023-02-18T00:43:17;5.23;77.79
64638;HTU21D;51049;45.046;38.950;2023-02-18T00:45:50;5.24;77.82
64638;HTU21D;51049;45.046;38.950;2023-02-18T00:48:19;5.24;77.81
64638;HTU21D;51049;45.046;38.950;2023-02-18T00:50:46;5.25;77.95
64638;HTU21D;51049;45.046;38.950;2023-02-18T00:53:16;5.30;78.07
64638;HTU21D;51049;45.046;38.950;2023-02-18T00:56:16;5.33;77.95
64638;HTU21D;51049;45.046;38.950;2023-02-18T00:59:02;5.35;77.90
64638;HTU21D;51049;45.046;38.950;2023-02-18T01:01:41;5.37;77.81
64638;HTU21D;51049;45.046;38.950;2023-02-18T01:04:25;5.36;77.93
64638;HTU21D;51049;45.046;38.950;2023-02-18T01:06:56;5.39;77.86
64638;HTU21D;51049;45.046;38.950;2023-02-18T01:09:26;5.39;78.00
64638;HTU21D;51049;45.046;38.950;2023-02-18T01:12:21;5.42;78.26
64638;HTU21D;51049;45.046;38.950;2023-02-18T01:14:51;5.43;78.09
64638;HTU21D;51049;45.046;38.950;2023-02-18T01:17:24;5.46;78.08
64638;HTU21D;51049;45.046;38.950;2023-02-18T01:19:55;5.48;78.11
64638;HTU21D;51049;45.046;38.950;2023-02-18T01:22:25;5.50;78.06
64638;HTU21D;51049;45.046;38.950;2023-02-18T01:25:03;5.51;78.03
64638;HTU21D;51049;45.046;38.950;2023-02-18T01:27:39;5.51;78.00
64638;HTU21D;51049;45.046;38.950;2023-02-18T01:30:18;5.50;78.08
64638;HTU21D;51049;45.046;38.950;2023-02-18T01:33:42;5.50;78.01
64638;HTU21D;51049;45.046;38.950;2023-02-18T01:39:50;5.47;77.98
64638;HTU21D;51049;45.046;38.950;2023-02-18T01:42:47;5.46;78.07
64638;HTU21D;51049;45.046;38.950;2023-02-18T01:48:32;5.46;78.01
64638;HTU21D;51049;45.046;38.950;2023-02-18T01:51:25;5.46;77.98
64638;HTU21D;51049;45.046;38.950;2023-02-18T02:00:04;5.45;78.01
64638;HTU21D;51049;45.046;38.950;2023-02-18T02:02:48;5.42;78.00
64638;HTU21D;51049;45.046;38.950;2023-02-18T02:09:18;5.41;78.08
64638;HTU21D;51049;45.046;38.950;2023-02-18T02:24:34;5.45;78.19
64638;HTU21D;51049;45.046;38.950;2023-02-18T02:27:22;5.45;78.32
64638;HTU21D;51049;45.046;38.950;2023-02-18T02:37:01;5.42;78.53
64638;HTU21D;51049;45.046;38.950;2023-02-18T02:43:07;5.39;78.57
64638;HTU21D;51049;45.046;38.950;2023-02-18T02:54:45;5.40;78.68
64638;HTU21D;51049;45.046;38.950;2023-02-18T03:00:31;5.42;78.67
64638;HTU21D;51049;45.046;38.950;2023-02-18T03:24:54;5.54;78.56
64638;HTU21D;51049;45.046;38.950;2023-02-18T03:30:46;5.56;78.48
64638;HTU21D;51049;45.046;38.950;2023-02-18T03:33:17;5.57;78.46
64638;HTU21D;51049;45.046;38.950;2023-02-18T03:35:46;5.57;78.44
64638;HTU21D;51049;45.046;38.950;2023-02-18T03:38:36;5.57;78.44
64638;HTU21D;51049;45.046;38.950;2023-02-18T03:41:12;5.56;78.41
64638;HTU21D;51049;45.046;38.950;2023-02-18T03:44:01;5.55;78.42
64638;HTU21D;51049;45.046;38.950;2023-02-18T03:46:32;5.59;78.47
64638;HTU21D;51049;45.046;38.950;2023-02-18T03:49:48;5.61;78.45
64638;HTU21D;51049;45.046;38.950;2023-02-18T03:52:56;5.64;78.40
64638;HTU21D;51049;45.046;38.950;2023-02-18T04:07:43;5.78;78.18
64638;HTU21D;51049;45.046;38.950;2023-02-18T04:14:55;5.80;78.06
64638;HTU21D;51049;45.046;38.950;2023-02-18T04:17:27;5.78;78.08
64638;HTU21D;51049;45.046;38.950;2023-02-18T04:20:17;5.79;78.05
64638;HTU21D;51049;45.046;38.950;2023-02-18T04:27:18;5.79;78.02
64638;HTU21D;51049;45.046;38.950;2023-02-18T04:34:16;5.72;77.99
64638;HTU21D;51049;45.046;38.950;2023-02-18T04:37:03;5.69;77.97
64638;HTU21D;51049;45.046;38.950;2023-02-18T04:39:41;5.64;77.97
64638;HTU21D;51049;45.046;38.950;2023-02-18T04:42:19;5.61;77.97
64638;HTU21D;51049;45.046;38.950;2023-02-18T04:49:19;5.49;77.95
64638;HTU21D;51049;45.046;38.950;2023-02-18T04:51:48;5.42;77.95
64638;HTU21D;51049;45.046;38.950;2023-02-18T04:54:14;5.38;77.97
64638;HTU21D;51049;45.046;38.950;2023-02-18T04:56:40;5.33;77.99
64638;HTU21D;51049;45.046;38.950;2023-02-18T04:59:06;5.28;78.01
64638;HTU21D;51049;45.046;38.950;2023-02-18T05:01:35;5.26;78.04
64638;HTU21D;51049;45.046;38.950;2023-02-18T05:04:02;5.23;78.06
64638;HTU21D;51049;45.046;38.950;2023-02-18T05:06:28;5.20;78.05
64638;HTU21D;51049;45.046;38.950;2023-02-18T05:08:54;5.17;78.02
64638;HTU21D;51049;45.046;38.950;2023-02-18T05:11:20;5.12;78.06
64638;HTU21D;51049;45.046;38.950;2023-02-18T05:13:46;5.10;78.08
64638;HTU21D;51049;45.046;38.950;2023-02-18T05:16:12;5.07;78.09
64638;HTU21D;51049;45.046;38.950;2023-02-18T05:18:38;5.05;78.11
64638;HTU21D;51049;45.046;38.950;2023-02-18T05:21:05;5.05;78.12
64638;HTU21D;51049;45.046;38.950;2023-02-18T05:23:31;5.04;78.11
64638;HTU21D;51049;45.046;38.950;2023-02-18T05:25:57;5.02;78.11
64638;HTU21D;51049;45.046;38.950;2023-02-18T05:28:23;5.02;78.10
64638;HTU21D;51049;45.046;38.950;2023-02-18T05:30:49;5.02;78.09
64638;HTU21D;51049;45.046;38.950;2023-02-18T05:33:15;5.01;78.08
64638;HTU21D;51049;45.046;38.950;2023-02-18T05:35:41;5.00;78.07
64638;HTU21D;51049;45.046;38.950;2023-02-18T05:38:10;4.98;78.06
64638;HTU21D;51049;45.046;38.950;2023-02-18T05:40:37;4.98;78.06
64638;HTU21D;51049;45.046;38.950;2023-02-18T05:43:06;4.98;78.07
64638;HTU21D;51049;45.046;38.950;2023-02-18T05:45:32;4.98;78.07
64638;HTU21D;51049;45.046;38.950;2023-02-18T05:47:58;5.00;78.07
64638;HTU21D;51049;45.046;38.950;2023-02-18T05:50:27;5.01;78.05
64638;HTU21D;51049;45.046;38.950;2023-02-18T05:52:53;5.02;78.05
64638;HTU21D;51049;45.046;38.950;2023-02-18T05:55:19;5.05;78.04
64638;HTU21D;51049;45.046;38.950;2023-02-18T05:57:45;5.06;78.01
64638;HTU21D;51049;45.046;38.950;2023-02-18T06:00:12;5.07;77.99
64638;HTU21D;51049;45.046;38.950;2023-02-18T06:02:38;5.09;77.98
64638;HTU21D;51049;45.046;38.950;2023-02-18T06:05:08;5.12;78.00
64638;HTU21D;51049;45.046;38.950;2023-02-18T06:07:34;5.15;77.98
64638;HTU21D;51049;45.046;38.950;2023-02-18T06:10:01;5.18;77.99
64638;HTU21D;51049;45.046;38.950;2023-02-18T06:12:29;5.20;77.97
64638;HTU21D;51049;45.046;38.950;2023-02-18T06:14:55;5.22;77.94
64638;HTU21D;51049;45.046;38.950;2023-02-18T06:17:22;5.22;77.94
64638;HTU21D;51049;45.046;38.950;2023-02-18T06:19:48;5.24;77.94
64638;HTU21D;51049;45.046;38.950;2023-02-18T06:22:17;5.27;77.92
64638;HTU21D;51049;45.046;38.950;2023-02-18T06:24:43;5.30;77.91
64638;HTU21D;51049;45.046;38.950;2023-02-18T06:27:09;5.32;77.91
64638;HTU21D;51049;45.046;38.950;2023-02-18T06:29:35;5.34;77.91
64638;HTU21D;51049;45.046;38.950;2023-02-18T06:32:01;5.37;77.89
64638;HTU21D;51049;45.046;38.950;2023-02-18T06:34:27;5.40;77.89
64638;HTU21D;51049;45.046;38.950;2023-02-18T06:36:53;5.45;77.86
64638;HTU21D;51049;45.046;38.950;2023-02-18T06:39:19;5.48;77.85
64638;HTU21D;51049;45.046;38.950;2023-02-18T06:41:45;5.50;77.82
64638;HTU21D;51049;45.046;38.950;2023-02-18T06:44:12;5.55;77.79
64638;HTU21D;51049;45.046;38.950;2023-02-18T06:46:40;5.62;77.79
64638;HTU21D;51049;45.046;38.950;2023-02-18T06:49:06;5.70;77.77
64638;HTU21D;51049;45.046;38.950;2023-02-18T06:51:34;5.79;77.72
64638;HTU21D;51049;45.046;38.950;2023-02-18T06:54:00;5.89;77.64
64638;HTU21D;51049;45.046;38.950;2023-02-18T06:56:26;5.96;77.60
64638;HTU21D;51049;45.046;38.950;2023-02-18T06:58:52;6.04;77.56
64638;HTU21D;51049;45.046;38.950;2023-02-18T07:01:18;6.09;77.52
64638;HTU21D;51049;45.046;38.950;2023-02-18T07:03:44;6.13;77.50
64638;HTU21D;51049;45.046;38.950;2023-02-18T07:06:10;6.17;77.48
64638;HTU21D;51049;45.046;38.950;2023-02-18T07:08:36;6.21;77.44
64638;HTU21D;51049;45.046;38.950;2023-02-18T07:11:04;6.22;77.42
64638;HTU21D;51049;45.046;38.950;2023-02-18T07:13:30;6.22;77.43
64638;HTU21D;51049;45.046;38.950;2023-02-18T07:15:59;6.22;77.44
64638;HTU21D;51049;45.046;38.950;2023-02-18T07:18:25;6.21;77.47
64638;HTU21D;51049;45.046;38.950;2023-02-18T07:20:51;6.21;77.48
64638;HTU21D;51049;45.046;38.950;2023-02-18T07:23:17;6.20;77.49
64638;HTU21D;51049;45.046;38.950;2023-02-18T07:25:43;6.17;77.52
64638;HTU21D;51049;45.046;38.950;2023-02-18T07:28:13;6.16;77.55
64638;HTU21D;51049;45.046;38.950;2023-02-18T07:30:39;6.16;77.57
64638;HTU21D;51049;45.046;38.950;2023-02-18T07:33:05;6.16;77.56
64638;HTU21D;51049;45.046;38.950;2023-02-18T07:35:53;6.16;77.61
64638;HTU21D;51049;45.046;38.950;2023-02-18T07:38:23;6.17;77.59
64638;HTU21D;51049;45.046;38.950;2023-02-18T07:40:53;6.17;77.60
64638;HTU21D;51049;45.046;38.950;2023-02-18T07:43:54;6.19;77.63
64638;HTU21D;51049;45.046;38.950;2023-02-18T07:46:25;6.21;77.59
64638;HTU21D;51049;45.046;38.950;2023-02-18T07:48:52;6.24;77.60
64638;HTU21D;51049;45.046;38.950;2023-02-18T07:51:18;6.28;77.60
64638;HTU21D;51049;45.046;38.950;2023-02-18T07:53:44;6.37;77.57
64638;HTU21D;51049;45.046;38.950;2023-02-18T07:56:10;6.46;77.53
64638;HTU21D;51049;45.046;38.950;2023-02-18T07:58:39;6.57;77.45
64638;HTU21D;51049;45.046;38.950;2023-02-18T08:01:09;6.68;77.38
64638;HTU21D;51049;45.046;38.950;2023-02-18T08:03:36;6.80;77.30
64638;HTU21D;51049;45.046;38.950;2023-02-18T08:06:12;6.93;77.21
64638;HTU21D;51049;45.046;38.950;2023-02-18T08:08:56;7.08;77.15
64638;HTU21D;51049;45.046;38.950;2023-02-18T08:11:47;7.19;77.07
64638;HTU21D;51049;45.046;38.950;2023-02-18T08:14:12;7.28;77.01
64638;HTU21D;51049;45.046;38.950;2023-02-18T08:16:39;7.34;76.98
64638;HTU21D;51049;45.046;38.950;2023-02-18T08:19:05;7.43;76.96
64638;HTU21D;51049;45.046;38.950;2023-02-18T08:21:32;7.53;76.95
64638;HTU21D;51049;45.046;38.950;2023-02-18T08:24:07;7.65;76.93
64638;HTU21D;51049;45.046;38.950;2023-02-18T08:26:37;7.81;76.87
64638;HTU21D;51049;45.046;38.950;2023-02-18T08:29:37;7.94;76.79
64638;HTU21D;51049;45.046;38.950;2023-02-18T08:32:22;8.08;76.68
64638;HTU21D;51049;45.046;38.950;2023-02-18T08:34:51;8.21;76.63
64638;HTU21D;51049;45.046;38.950;2023-02-18T08:37:20;8.34;76.59
64638;HTU21D;51049;45.046;38.950;2023-02-18T08:42:55;8.70;76.47
64638;HTU21D;51049;45.046;38.950;2023-02-18T08:45:35;8.82;76.33
64638;HTU21D;51049;45.046;38.950;2023-02-18T08:48:03;8.90;76.29
64638;HTU21D;51049;45.046;38.950;2023-02-18T08:54:03;9.08;76.21
64638;HTU21D;51049;45.046;38.950;2023-02-18T08:56:29;9.11;76.15
64638;HTU21D;51049;45.046;38.950;2023-02-18T08:58:56;9.11;76.07
64638;HTU21D;51049;45.046;38.950;2023-02-18T09:01:22;9.07;76.05
64638;HTU21D;51049;45.046;38.950;2023-02-18T09:03:48;9.02;76.09
64638;HTU21D;51049;45.046;38.950;2023-02-18T09:06:15;8.96;76.15
64638;HTU21D;51049;45.046;38.950;2023-02-18T09:08:41;8.88;76.19
64638;HTU21D;51049;45.046;38.950;2023-02-18T09:11:13;8.79;76.27
64638;HTU21D;51049;45.046;38.950;2023-02-18T09:13:45;8.74;76.30
64638;HTU21D;51049;45.046;38.950;2023-02-18T09:16:31;8.64;76.37
64638;HTU21D;51049;45.046;38.950;2023-02-18T09:19:20;8.61;76.45
64638;HTU21D;51049;45.046;38.950;2023-02-18T09:22:09;8.64;76.57
64638;HTU21D;51049;45.046;38.950;2023-02-18T09:24:48;8.82;76.55
64638;HTU21D;51049;45.046;38.950;2023-02-18T09:27:57;9.10;76.48
64638;HTU21D;51049;45.046;38.950;2023-02-18T09:31:12;9.42;76.24
64638;HTU21D;51049;45.046;38.950;2023-02-18T09:33:40;9.67;76.05
64638;HTU21D;51049;45.046;38.950;2023-02-18T09:36:07;9.86;75.83
64638;HTU21D;51049;45.046;38.950;2023-02-18T09:38:33;10.00;75.74
64638;HTU21D;51049;45.046;38.950;2023-02-18T09:44:13;10.15;75.40
64638;HTU21D;51049;45.046;38.950;2023-02-18T09:47:12;10.13;75.31
64638;HTU21D;51049;45.046;38.950;2023-02-18T09:50:36;10.10;75.15
64638;HTU21D;51049;45.046;38.950;2023-02-18T09:53:03;10.00;75.03
64638;HTU21D;51049;45.046;38.950;2023-02-18T09:55:44;9.92;75.18
64638;HTU21D;51049;45.046;38.950;2023-02-18T09:58:24;9.83;74.83
64638;HTU21D;51049;45.046;38.950;2023-02-18T10:00:55;9.80;74.89
64638;HTU21D;51049;45.046;38.950;2023-02-18T10:03:25;9.81;74.86
64638;HTU21D;51049;45.046;38.950;2023-02-18T10:12:51;9.96;74.42
64638;HTU21D;51049;45.046;38.950;2023-02-18T10:15:45;9.94;74.25
64638;HTU21D;51049;45.046;38.950;2023-02-18T10:18:45;9.91;74.16
64638;HTU21D;51049;45.046;38.950;2023-02-18T10:21:25;9.84;74.17
64638;HTU21D;51049;45.046;38.950;2023-02-18T10:26:28;9.74;74.02
64638;HTU21D;51049;45.046;38.950;2023-02-18T10:29:04;9.70;73.89
64638;HTU21D;51049;45.046;38.950;2023-02-18T10:31:42;9.67;73.58
64638;HTU21D;51049;45.046;38.950;2023-02-18T10:40:46;9.76;72.90
64638;HTU21D;51049;45.046;38.950;2023-02-18T10:43:40;9.81;72.58
64638;HTU21D;51049;45.046;38.950;2023-02-18T10:52:16;9.98;71.45
64638;HTU21D;51049;45.046;38.950;2023-02-18T10:55:04;10.03;71.11
64638;HTU21D;51049;45.046;38.950;2023-02-18T10:57:31;10.03;70.40
64638;HTU21D;51049;45.046;38.950;2023-02-18T11:00:05;10.03;70.86
64638;HTU21D;51049;45.046;38.950;2023-02-18T11:02:40;9.98;70.27
64638;HTU21D;51049;45.046;38.950;2023-02-18T11:05:23;9.92;70.34
64638;HTU21D;51049;45.046;38.950;2023-02-18T11:11:31;9.71;70.31
64638;HTU21D;51049;45.046;38.950;2023-02-18T11:14:03;9.67;70.28
64638;HTU21D;51049;45.046;38.950;2023-02-18T11:16:44;9.66;70.45
64638;HTU21D;51049;45.046;38.950;2023-02-18T11:19:35;9.69;70.32
64638;HTU21D;51049;45.046;38.950;2023-02-18T11:22:33;9.72;70.18
64638;HTU21D;51049;45.046;38.950;2023-02-18T11:25:22;9.72;69.93
64638;HTU21D;51049;45.046;38.950;2023-02-18T11:28:02;9.71;69.84
64638;HTU21D;51049;45.046;38.950;2023-02-18T11:30:41;9.69;69.45
64638;HTU21D;51049;45.046;38.950;2023-02-18T11:33:45;9.65;69.20
64638;HTU21D;51049;45.046;38.950;2023-02-18T11:36:23;9.57;69.15
64638;HTU21D;51049;45.046;38.950;2023-02-18T11:42:03;9.39;69.53
64638;HTU21D;51049;45.046;38.950;2023-02-18T11:44:35;9.26;69.33
64638;HTU21D;51049;45.046;38.950;2023-02-18T11:50:09;9.02;69.26
64638;HTU21D;51049;45.046;38.950;2023-02-18T11:52:43;8.87;69.54
64638;HTU21D;51049;45.046;38.950;2023-02-18T11:55:21;8.76;69.70
64638;HTU21D;51049;45.046;38.950;2023-02-18T11:58:00;8.71;69.81
64638;HTU21D;51049;45.046;38.950;2023-02-18T12:00:44;8.66;69.81
64638;HTU21D;51049;45.046;38.950;2023-02-18T12:06:21;8.66;70.05
64638;HTU21D;51049;45.046;38.950;2023-02-18T12:08:52;8.68;70.01
64638;HTU21D;51049;45.046;38.950;2023-02-18T12:11:53;8.71;70.14
64638;HTU21D;51049;45.046;38.950;2023-02-18T12:14:21;8.71;70.03
64638;HTU21D;51049;45.046;38.950;2023-02-18T12:17:11;8.71;70.21
64638;HTU21D;51049;45.046;38.950;2023-02-18T12:28:07;8.71;70.20
64638;HTU21D;51049;45.046;38.950;2023-02-18T12:30:56;8.66;70.26
64638;HTU21D;51049;45.046;38.950;2023-02-18T12:36:25;8.56;70.37
64638;HTU21D;51049;45.046;38.950;2023-02-18T12:39:01;8.52;70.53
64638;HTU21D;51049;45.046;38.950;2023-02-18T12:47:41;8.38;70.81
64638;HTU21D;51049;45.046;38.950;2023-02-18T12:59:15;8.00;71.34
64638;HTU21D;51049;45.046;38.950;2023-02-18T13:02:08;7.91;71.43
64638;HTU21D;51049;45.046;38.950;2023-02-18T13:05:17;7.81;71.61
64638;HTU21D;51049;45.046;38.950;2023-02-18T13:08:19;7.72;71.74
64638;HTU21D;51049;45.046;38.950;2023-02-18T13:11:18;7.64;71.82
64638;HTU21D;51049;45.046;38.950;2023-02-18T13:13:57;7.57;71.91
64638;HTU21D;51049;45.046;38.950;2023-02-18T13:16:26;7.54;72.05
64638;HTU21D;51049;45.046;38.950;2023-02-18T13:21:49;7.52;72.21
64638;HTU21D;51049;45.046;38.950;2023-02-18T13:30:20;7.48;72.24
64638;HTU21D;51049;45.046;38.950;2023-02-18T13:38:51;7.38;72.44
64638;HTU21D;51049;45.046;38.950;2023-02-18T13:41:20;7.34;72.45
64638;HTU21D;51049;45.046;38.950;2023-02-18T13:43:50;7.32;72.60
64638;HTU21D;51049;45.046;38.950;2023-02-18T13:46:26;7.28;72.64
64638;HTU21D;51049;45.046;38.950;2023-02-18T13:49:10;7.24;72.74
64638;HTU21D;51049;45.046;38.950;2023-02-18T13:51:45;7.18;72.81
64638;HTU21D;51049;45.046;38.950;2023-02-18T13:54:18;7.14;72.76
64638;HTU21D;51049;45.046;38.950;2023-02-18T13:56:56;7.10;72.83
64638;HTU21D;51049;45.046;38.950;2023-02-18T14:02:28;6.98;72.90
64638;HTU21D;51049;45.046;38.950;2023-02-18T14:07:50;6.88;73.06
64638;HTU21D;51049;45.046;38.950;2023-02-18T14:31:42;6.83;74.03
64638;HTU21D;51049;45.046;38.950;2023-02-18T14:34:42;6.85;74.03
64638;HTU21D;51049;45.046;38.950;2023-02-18T14:40:22;6.89;73.99
64638;HTU21D;51049;45.046;38.950;2023-02-18T14:46:11;6.93;74.35
64638;HTU21D;51049;45.046;38.950;2023-02-18T14:51:32;6.94;74.29
64638;HTU21D;51049;45.046;38.950;2023-02-18T14:54:04;6.95;74.31
64638;HTU21D;51049;45.046;38.950;2023-02-18T14:56:36;6.95;74.26
64638;HTU21D;51049;45.046;38.950;2023-02-18T14:59:06;6.96;74.33
64638;HTU21D;51049;45.046;38.950;2023-02-18T15:01:39;6.93;74.58
64638;HTU21D;51049;45.046;38.950;2023-02-18T15:04:13;6.91;74.70
64638;HTU21D;51049;45.046;38.950;2023-02-18T15:06:42;6.89;74.64
64638;HTU21D;51049;45.046;38.950;2023-02-18T15:09:18;6.89;74.57
64638;HTU21D;51049;45.046;38.950;2023-02-18T15:11:51;6.89;74.56
64638;HTU21D;51049;45.046;38.950;2023-02-18T15:14:29;6.91;74.56
64638;HTU21D;51049;45.046;38.950;2023-02-18T15:16:59;6.91;74.64
64638;HTU21D;51049;45.046;38.950;2023-02-18T15:19:38;6.93;74.54
64638;HTU21D;51049;45.046;38.950;2023-02-18T15:22:05;6.94;74.46
64638;HTU21D;51049;45.046;38.950;2023-02-18T15:24:45;6.93;74.51
64638;HTU21D;51049;45.046;38.950;2023-02-18T15:27:23;6.93;74.47
64638;HTU21D;51049;45.046;38.950;2023-02-18T15:29:52;6.95;74.48
64638;HTU21D;51049;45.046;38.950;2023-02-18T15:32:30;6.95;74.44
64638;HTU21D;51049;45.046;38.950;2023-02-18T15:35:18;6.95;74.44
64638;HTU21D;51049;45.046;38.950;2023-02-18T15:37:56;6.95;74.44
64638;HTU21D;51049;45.046;38.950;2023-02-18T15:40:31;6.95;74.48
64638;HTU21D;51049;45.046;38.950;2023-02-18T15:43:16;6.95;74.47
64638;HTU21D;51049;45.046;38.950;2023-02-18T15:45:47;6.94;74.51
64638;HTU21D;51049;45.046;38.950;2023-02-18T15:48:52;6.94;74.57
64638;HTU21D;51049;45.046;38.950;2023-02-18T15:51:31;6.95;74.61
64638;HTU21D;51049;45.046;38.950;2023-02-18T15:54:19;6.95;74.79
64638;HTU21D;51049;45.046;38.950;2023-02-18T15:57:00;6.96;74.71
64638;HTU21D;51049;45.046;38.950;2023-02-18T15:59:45;6.98;74.74
64638;HTU21D;51049;45.046;38.950;2023-02-18T16:02:29;7.00;74.79
64638;HTU21D;51049;45.046;38.950;2023-02-18T16:05:01;7.02;75.00
64638;HTU21D;51049;45.046;38.950;2023-02-18T16:07:47;7.03;74.83
64638;HTU21D;51049;45.046;38.950;2023-02-18T16:13:03;7.08;74.74
64638;HTU21D;51049;45.046;38.950;2023-02-18T16:15:39;7.09;74.70
64638;HTU21D;51049;45.046;38.950;2023-02-18T16:18:50;7.12;74.80
64638;HTU21D;51049;45.046;38.950;2023-02-18T16:24:26;7.17;74.77
64638;HTU21D;51049;45.046;38.950;2023-02-18T16:26:59;7.22;74.80
64638;HTU21D;51049;45.046;38.950;2023-02-18T16:29:42;7.25;74.77
64638;HTU21D;51049;45.046;38.950;2023-02-18T16:32:08;7.29;74.76
64638;HTU21D;51049;45.046;38.950;2023-02-18T16:34:35;7.31;74.80
64638;HTU21D;51049;45.046;38.950;2023-02-18T16:37:01;7.37;74.89
64638;HTU21D;51049;45.046;38.950;2023-02-18T16:39:49;7.44;74.95
64638;HTU21D;51049;45.046;38.950;2023-02-18T16:42:17;7.52;74.93
64638;HTU21D;51049;45.046;38.950;2023-02-18T16:44:43;7.57;74.93
64638;HTU21D;51049;45.046;38.950;2023-02-18T16:47:14;7.62;74.89
64638;HTU21D;51049;45.046;38.950;2023-02-18T16:53:30;7.71;74.88
64638;HTU21D;51049;45.046;38.950;2023-02-18T16:55:57;7.73;74.83
64638;HTU21D;51049;45.046;38.950;2023-02-18T16:58:23;7.74;74.90
64638;HTU21D;51049;45.046;38.950;2023-02-18T17:04:18;7.67;74.77
64638;HTU21D;51049;45.046;38.950;2023-02-18T17:06:50;7.63;74.79
64638;HTU21D;51049;45.046;38.950;2023-02-18T17:09:23;7.61;74.88
64638;HTU21D;51049;45.046;38.950;2023-02-18T17:11:54;7.59;74.95
64638;HTU21D;51049;45.046;38.950;2023-02-18T17:14:21;7.59;75.14
64638;HTU21D;51049;45.046;38.950;2023-02-18T17:16:54;7.62;75.18
64638;HTU21D;51049;45.046;38.950;2023-02-18T17:19:23;7.65;75.29
64638;HTU21D;51049;45.046;38.950;2023-02-18T17:21:51;7.71;75.27
64638;HTU21D;51049;45.046;38.950;2023-02-18T17:24:18;7.70;75.50
64638;HTU21D;51049;45.046;38.950;2023-02-18T17:26:49;7.68;75.40
64638;HTU21D;51049;45.046;38.950;2023-02-18T17:29:17;7.65;75.44
64638;HTU21D;51049;45.046;38.950;2023-02-18T17:31:47;7.64;75.61
64638;HTU21D;51049;45.046;38.950;2023-02-18T17:34:32;7.64;75.69
64638;HTU21D;51049;45.046;38.950;2023-02-18T17:37:01;7.64;75.73
64638;HTU21D;51049;45.046;38.950;2023-02-18T17:39:30;7.65;75.68
64638;HTU21D;51049;45.046;38.950;2023-02-18T17:41:56;7.67;75.73
64638;HTU21D;51049;45.046;38.950;2023-02-18T17:44:25;7.70;75.73
64638;HTU21D;51049;45.046;38.950;2023-02-18T17:46:54;7.73;75.75
64638;HTU21D;51049;45.046;38.950;2023-02-18T17:49:23;7.74;75.73
64638;HTU21D;51049;45.046;38.950;2023-02-18T17:51:49;7.79;75.82
64638;HTU21D;51049;45.046;38.950;2023-02-18T17:54:19;7.82;75.72
64638;HTU21D;51049;45.046;38.950;2023-02-18T17:56:54;7.87;75.70
64638;HTU21D;51049;45.046;38.950;2023-02-18T17:59:31;7.90;75.72
64638;HTU21D;51049;45.046;38.950;2023-02-18T18:01:58;7.92;75.93
64638;HTU21D;51049;45.046;38.950;2023-02-18T18:04:28;7.98;75.82
64638;HTU21D;51049;45.046;38.950;2023-02-18T18:06:56;7.99;75.86
64638;HTU21D;51049;45.046;38.950;2023-02-18T18:09:22;8.04;75.89
64638;HTU21D;51049;45.046;38.950;2023-02-18T18:11:50;8.09;75.94
64638;HTU21D;51049;45.046;38.950;2023-02-18T18:14:16;8.16;75.79
64638;HTU21D;51049;45.046;38.950;2023-02-18T18:16:43;8.20;75.82
64638;HTU21D;51049;45.046;38.950;2023-02-18T18:19:09;8.24;75.79
64638;HTU21D;51049;45.046;38.950;2023-02-18T18:21:36;8.27;75.92
64638;HTU21D;51049;45.046;38.950;2023-02-18T18:24:03;8.33;75.86
64638;HTU21D;51049;45.046;38.950;2023-02-18T18:26:29;8.37;75.87
64638;HTU21D;51049;45.046;38.950;2023-02-18T18:28:55;8.39;75.75
64638;HTU21D;51049;45.046;38.950;2023-02-18T18:31:21;8.42;75.78
64638;HTU21D;51049;45.046;38.950;2023-02-18T18:33:49;8.46;75.80
64638;HTU21D;51049;45.046;38.950;2023-02-18T18:36:19;8.48;75.72
64638;HTU21D;51049;45.046;38.950;2023-02-18T18:38:47;8.49;75.69
64638;HTU21D;51049;45.046;38.950;2023-02-18T18:41:19;8.51;75.70
64638;HTU21D;51049;45.046;38.950;2023-02-18T18:43:46;8.53;75.73
64638;HTU21D;51049;45.046;38.950;2023-02-18T18:46:12;8.55;75.70
64638;HTU21D;51049;45.046;38.950;2023-02-18T18:48:55;8.55;75.67
64638;HTU21D;51049;45.046;38.950;2023-02-18T18:51:27;8.55;75.79
64638;HTU21D;51049;45.046;38.950;2023-02-18T18:53:54;8.55;75.72
64638;HTU21D;51049;45.046;38.950;2023-02-18T18:56:20;8.56;75.74
64638;HTU21D;51049;45.046;38.950;2023-02-18T18:58:50;8.56;75.76
64638;HTU21D;51049;45.046;38.950;2023-02-18T19:01:20;8.58;75.79
64638;HTU21D;51049;45.046;38.950;2023-02-18T19:03:50;8.62;75.94
64638;HTU21D;51049;45.046;38.950;2023-02-18T19:06:17;8.63;75.79
64638;HTU21D;51049;45.046;38.950;2023-02-18T19:08:48;8.65;75.76
64638;HTU21D;51049;45.046;38.950;2023-02-18T19:11:19;8.65;75.74
64638;HTU21D;51049;45.046;38.950;2023-02-18T19:13:47;8.66;75.76
64638;HTU21D;51049;45.046;38.950;2023-02-18T19:16:26;8.67;75.73
64638;HTU21D;51049;45.046;38.950;2023-02-18T19:19:09;8.70;75.72
64638;HTU21D;51049;45.046;38.950;2023-02-18T19:21:37;8.67;75.67
64638;HTU21D;51049;45.046;38.950;2023-02-18T19:24:06;8.67;75.68
64638;HTU21D;51049;45.046;38.950;2023-02-18T19:26:39;8.67;75.70
64638;HTU21D;51049;45.046;38.950;2023-02-18T19:29:10;8.68;75.69
64638;HTU21D;51049;45.046;38.950;2023-02-18T19:31:39;8.68;75.67
64638;HTU21D;51049;45.046;38.950;2023-02-18T19:34:16;8.66;75.72
64638;HTU21D;51049;45.046;38.950;2023-02-18T19:37:33;8.66;75.68
64638;HTU21D;51049;45.046;38.950;2023-02-18T19:40:17;8.64;75.68
64638;HTU21D;51049;45.046;38.950;2023-02-18T19:43:06;8.63;75.67
64638;HTU21D;51049;45.046;38.950;2023-02-18T19:45:44;8.61;75.68
64638;HTU21D;51049;45.046;38.950;2023-02-18T19:48:16;8.57;75.67
64638;HTU21D;51049;45.046;38.950;2023-02-18T19:50:42;8.57;75.70
64638;HTU21D;51049;45.046;38.950;2023-02-18T19:53:22;8.56;75.74
64638;HTU21D;51049;45.046;38.950;2023-02-18T19:56:06;8.55;75.74
64638;HTU21D;51049;45.046;38.950;2023-02-18T19:58:53;8.55;75.76
64638;HTU21D;51049;45.046;38.950;2023-02-18T20:01:19;8.55;75.76
64638;HTU21D;51049;45.046;38.950;2023-02-18T20:03:45;8.55;75.81
64638;HTU21D;51049;45.046;38.950;2023-02-18T20:06:25;8.57;75.81